createdAt,value
2018-12-25T00:00:39.435Z,2.20
2018-12-25T00:03:09.835Z,2.20
2018-12-25T00:05:39.977Z,2.10
2018-12-25T00:08:10.126Z,2.10
2018-12-25T00:10:40.260Z,2.10
2018-12-25T00:13:10.836Z,2.10
2018-12-25T00:15:41.158Z,2.10
2018-12-25T00:18:11.379Z,2.00
2018-12-25T00:20:41.444Z,2.00
2018-12-25T00:23:11.847Z,2.00
2018-12-25T00:25:42.055Z,2.00
2018-12-25T00:28:12.237Z,2.00
2018-12-25T00:30:42.648Z,2.00
2018-12-25T00:33:14.116Z,2.00
2018-12-25T00:35:44.224Z,1.90
2018-12-25T00:38:14.391Z,1.90
2018-12-25T00:40:44.834Z,1.90
2018-12-25T00:43:17.602Z,1.90
2018-12-25T00:45:48.067Z,1.90
2018-12-25T00:48:18.490Z,1.90
2018-12-25T00:50:48.475Z,1.90
2018-12-25T00:53:18.434Z,1.90
2018-12-25T00:55:48.727Z,1.80
2018-12-25T00:58:19.026Z,1.90
2018-12-25T01:00:49.517Z,1.80
2018-12-25T01:03:19.800Z,1.80
2018-12-25T01:05:49.952Z,1.80
2018-12-25T01:08:20.097Z,1.80
2018-12-25T01:10:50.186Z,1.80
2018-12-25T01:13:20.348Z,1.80
2018-12-25T01:15:50.488Z,1.90
2018-12-25T01:18:21.130Z,1.90
2018-12-25T01:20:51.309Z,1.90
2018-12-25T01:23:21.460Z,1.90
2018-12-25T01:25:51.615Z,1.90
2018-12-25T01:28:22.100Z,1.90
2018-12-25T01:30:52.221Z,1.90
2018-12-25T01:33:22.509Z,1.80
2018-12-25T01:35:52.572Z,1.80
2018-12-25T01:38:23.155Z,1.80
2018-12-25T01:40:53.346Z,1.70
2018-12-25T01:43:23.453Z,1.60
2018-12-25T01:45:53.728Z,1.60
2018-12-25T01:48:24.016Z,1.50
2018-12-25T01:50:55.892Z,1.40
2018-12-25T01:53:27.108Z,1.30
2018-12-25T01:55:57.450Z,1.20
2018-12-25T01:58:27.663Z,1.10
2018-12-25T02:00:59.122Z,1.10
2018-12-25T02:03:29.309Z,1.10
2018-12-25T02:05:59.634Z,1.00
2018-12-25T02:08:30.132Z,1.00
2018-12-25T02:11:01.992Z,0.90
2018-12-25T02:13:32.419Z,0.90
2018-12-25T02:16:02.578Z,0.90
2018-12-25T02:18:32.845Z,0.90
2018-12-25T02:21:03.350Z,0.80
2018-12-25T02:23:33.450Z,0.60
2018-12-25T02:26:04.100Z,0.70
2018-12-25T02:28:34.362Z,0.70
2018-12-25T02:31:04.607Z,0.70
2018-12-25T02:33:34.857Z,0.80
2018-12-25T02:36:05.411Z,0.90
2018-12-25T02:38:35.682Z,0.90
2018-12-25T02:41:06.067Z,1.10
2018-12-25T02:43:36.327Z,1.20
2018-12-25T02:46:06.562Z,1.20
2018-12-25T02:48:36.744Z,1.20
2018-12-25T02:51:06.948Z,1.20
2018-12-25T02:53:37.333Z,1.10
2018-12-25T02:56:07.534Z,1.10
2018-12-25T02:58:37.652Z,1.10
2018-12-25T03:01:07.854Z,1.00
2018-12-25T03:03:38.000Z,0.90
2018-12-25T03:06:08.524Z,0.80
2018-12-25T03:08:38.812Z,0.70
2018-12-25T03:11:10.800Z,0.60
2018-12-25T03:13:41.954Z,0.60
2018-12-25T03:16:12.157Z,0.50
2018-12-25T03:18:42.445Z,0.40
2018-12-25T03:21:12.594Z,0.30
2018-12-25T03:23:42.606Z,0.20
2018-12-25T03:26:12.655Z,0.10
2018-12-25T03:28:42.778Z,0.00
2018-12-25T03:31:12.940Z,0.00
2018-12-25T03:33:43.091Z,-0.10
2018-12-25T03:36:13.160Z,-0.10
2018-12-25T03:38:43.700Z,-0.10
2018-12-25T03:41:13.906Z,-0.20
2018-12-25T03:43:44.208Z,-0.20
2018-12-25T03:46:14.650Z,-0.20
2018-12-25T03:48:45.024Z,-0.20
2018-12-25T03:51:15.130Z,-0.20
2018-12-25T03:53:45.329Z,-0.30
2018-12-25T03:56:15.727Z,-0.30
2018-12-25T03:58:45.892Z,-0.20
2018-12-25T04:01:15.928Z,-0.20
2018-12-25T04:03:45.967Z,-0.20
2018-12-25T04:06:16.205Z,-0.30
2018-12-25T04:08:46.515Z,-0.40
2018-12-25T04:11:16.678Z,-0.50
2018-12-25T04:13:46.812Z,-0.40
2018-12-25T04:16:16.936Z,-0.50
2018-12-25T04:18:47.018Z,-0.50
2018-12-25T04:21:17.071Z,-0.40
2018-12-25T04:23:47.242Z,-0.40
2018-12-25T04:26:17.263Z,-0.40
2018-12-25T04:28:47.373Z,-0.30
2018-12-25T04:31:17.742Z,-0.30
2018-12-25T04:33:47.794Z,-0.20
2018-12-25T04:36:17.930Z,-0.10
2018-12-25T04:38:47.948Z,0.00
2018-12-25T04:41:17.995Z,0.10
2018-12-25T04:43:48.016Z,0.10
2018-12-25T04:46:18.036Z,0.10
2018-12-25T04:48:48.134Z,0.20
2018-12-25T04:51:18.248Z,0.30
2018-12-25T04:53:48.293Z,0.40
2018-12-25T04:56:18.395Z,0.40
2018-12-25T04:58:48.489Z,0.40
2018-12-25T05:01:18.754Z,0.40
2018-12-25T05:03:48.975Z,0.40
2018-12-25T05:06:19.063Z,0.40
2018-12-25T05:08:49.092Z,0.40
2018-12-25T05:11:19.144Z,0.40
2018-12-25T05:13:49.204Z,0.40
2018-12-25T05:16:19.250Z,0.40
2018-12-25T05:18:49.439Z,0.40
2018-12-25T05:21:19.510Z,0.40
2018-12-25T05:23:49.485Z,0.40
2018-12-25T05:26:19.559Z,0.40
2018-12-25T05:28:49.691Z,0.40
2018-12-25T05:31:20.005Z,0.40
2018-12-25T05:33:50.166Z,0.40
2018-12-25T05:36:20.204Z,0.40
2018-12-25T05:38:50.264Z,0.40
2018-12-25T05:41:20.331Z,0.40
2018-12-25T05:43:50.405Z,0.40
2018-12-25T05:46:20.509Z,0.40
2018-12-25T05:48:50.628Z,0.40
2018-12-25T05:51:20.794Z,0.40
2018-12-25T05:53:51.086Z,0.40
2018-12-25T05:56:21.167Z,0.30
2018-12-25T05:58:51.245Z,0.30
2018-12-25T06:01:21.346Z,0.30
2018-12-25T06:03:51.462Z,0.30
2018-12-25T06:06:21.651Z,0.30
2018-12-25T06:08:51.778Z,0.30
2018-12-25T06:11:21.825Z,0.30
2018-12-25T06:13:51.907Z,0.30
2018-12-25T06:16:22.196Z,0.30
2018-12-25T06:18:52.310Z,0.30
2018-12-25T06:21:22.445Z,0.20
2018-12-25T06:23:52.469Z,0.20
2018-12-25T06:26:22.559Z,0.20
2018-12-25T06:28:52.589Z,0.20
2018-12-25T06:31:22.603Z,0.20
2018-12-25T06:33:52.626Z,0.20
2018-12-25T06:36:22.687Z,0.20
2018-12-25T06:38:52.750Z,0.20
2018-12-25T06:41:22.766Z,0.20
2018-12-25T06:43:53.792Z,0.20
2018-12-25T06:46:24.155Z,0.20
2018-12-25T06:48:54.391Z,0.20
2018-12-25T06:51:24.458Z,0.20
2018-12-25T06:53:54.567Z,0.20
2018-12-25T06:56:24.628Z,0.20
2018-12-25T06:58:54.689Z,0.20
2018-12-25T07:01:24.754Z,0.20
2018-12-25T07:03:54.787Z,0.20
2018-12-25T07:06:24.947Z,0.20
2018-12-25T07:08:54.981Z,0.20
2018-12-25T07:11:25.084Z,0.20
2018-12-25T07:13:55.221Z,0.20
2018-12-25T07:16:25.487Z,0.20
2018-12-25T07:18:55.601Z,0.20
2018-12-25T07:21:25.641Z,0.20
2018-12-25T07:23:55.680Z,0.20
2018-12-25T07:26:25.760Z,0.20
2018-12-25T07:28:55.882Z,0.20
2018-12-25T07:31:25.940Z,0.20
2018-12-25T07:33:55.923Z,0.20
2018-12-25T07:36:26.001Z,0.20
2018-12-25T07:38:56.057Z,0.20
2018-12-25T07:41:26.129Z,0.30
2018-12-25T07:43:56.248Z,0.30
2018-12-25T07:46:26.369Z,0.30
2018-12-25T07:48:56.769Z,0.30
2018-12-25T07:51:26.777Z,0.30
2018-12-25T07:53:56.929Z,0.30
2018-12-25T07:56:27.049Z,0.30
2018-12-25T07:58:57.263Z,0.30
2018-12-25T08:01:27.381Z,0.30
2018-12-25T08:03:57.431Z,0.30
2018-12-25T08:06:27.887Z,0.30
2018-12-25T08:08:57.947Z,0.30
2018-12-25T08:11:27.983Z,0.30
2018-12-25T08:13:57.999Z,0.30
2018-12-25T08:16:28.062Z,0.20
2018-12-25T08:18:58.249Z,0.20
2018-12-25T08:21:29.323Z,0.20
2018-12-25T08:24:00.749Z,0.20
2018-12-25T08:26:31.891Z,0.20
2018-12-25T08:29:02.023Z,0.30
2018-12-25T08:31:32.046Z,0.30
2018-12-25T08:34:02.206Z,0.30
2018-12-25T08:36:32.331Z,0.40
2018-12-25T08:39:02.445Z,0.40
2018-12-25T08:41:32.848Z,0.50
2018-12-25T08:44:03.189Z,0.40
2018-12-25T08:46:33.344Z,0.40
2018-12-25T08:49:03.667Z,0.40
2018-12-25T08:51:37.576Z,0.40
2018-12-25T08:54:05.986Z,0.40
2018-12-25T08:56:35.956Z,0.40
2018-12-25T08:59:06.057Z,0.40
2018-12-25T09:01:36.092Z,0.40
2018-12-25T09:04:06.146Z,0.50
2018-12-25T09:06:36.206Z,0.50
2018-12-25T09:09:07.929Z,0.50
2018-12-25T09:11:38.051Z,0.60
2018-12-25T09:14:08.214Z,0.70
2018-12-25T09:16:38.390Z,0.60
2018-12-25T09:19:08.640Z,0.80
2018-12-25T09:21:46.142Z,0.80
2018-12-25T09:24:10.647Z,0.90
2018-12-25T09:26:40.988Z,0.90
2018-12-25T09:29:11.218Z,0.90
2018-12-25T09:31:41.435Z,0.90
2018-12-25T09:34:11.491Z,0.90
2018-12-25T09:36:41.650Z,0.90
2018-12-25T09:39:11.775Z,0.90
2018-12-25T09:41:42.036Z,0.90
2018-12-25T09:44:12.440Z,0.80
2018-12-25T09:46:42.419Z,0.90
2018-12-25T09:49:12.441Z,0.90
2018-12-25T09:51:42.464Z,0.90
2018-12-25T09:54:12.572Z,0.90
2018-12-25T09:56:42.706Z,0.90
2018-12-25T09:59:12.846Z,0.90
2018-12-25T10:01:42.850Z,1.00
2018-12-25T10:04:12.864Z,1.00
2018-12-25T10:06:44.667Z,1.00
2018-12-25T10:09:14.839Z,1.10
2018-12-25T10:11:45.230Z,1.20
2018-12-25T10:14:15.472Z,1.40
2018-12-25T10:16:45.517Z,1.40
2018-12-25T10:19:15.511Z,1.30
2018-12-25T10:21:45.559Z,1.30
2018-12-25T10:24:15.673Z,1.30
2018-12-25T10:26:45.833Z,1.40
2018-12-25T10:29:16.027Z,1.40
2018-12-25T10:31:46.446Z,1.40
2018-12-25T10:34:16.553Z,1.40
2018-12-25T10:36:46.593Z,1.40
2018-12-25T10:39:16.704Z,1.30
2018-12-25T10:41:46.756Z,1.40
2018-12-25T10:44:16.855Z,1.40
2018-12-25T10:46:47.994Z,1.40
2018-12-25T10:49:18.126Z,1.40
2018-12-25T10:51:48.293Z,1.40
2018-12-25T10:54:18.631Z,1.50
2018-12-25T10:56:48.668Z,1.50
2018-12-25T10:59:19.087Z,1.40
2018-12-25T11:01:49.196Z,1.50
2018-12-25T11:04:19.883Z,1.50
2018-12-25T11:06:49.951Z,1.50
2018-12-25T11:09:20.097Z,1.50
2018-12-25T11:11:50.135Z,1.50
2018-12-25T11:14:20.351Z,1.60
2018-12-25T11:16:50.666Z,1.60
2018-12-25T11:19:20.828Z,1.60
2018-12-25T11:21:51.010Z,1.60
2018-12-25T11:24:21.150Z,1.60
2018-12-25T11:26:51.307Z,1.60
2018-12-25T11:29:21.699Z,1.60
2018-12-25T11:31:51.777Z,1.70
2018-12-25T11:34:21.841Z,1.60
2018-12-25T11:36:51.900Z,1.50
2018-12-25T11:39:22.039Z,1.50
2018-12-25T11:41:52.132Z,1.50
2018-12-25T11:44:22.354Z,1.50
2018-12-25T11:46:52.472Z,1.60
2018-12-25T11:49:22.766Z,1.60
2018-12-25T11:51:52.880Z,1.60
2018-12-25T11:54:22.963Z,1.60
2018-12-25T11:56:53.165Z,1.60
2018-12-25T11:59:24.630Z,1.60
2018-12-25T12:01:54.937Z,1.50
2018-12-25T12:04:25.029Z,1.50
2018-12-25T12:06:55.201Z,1.50
2018-12-25T12:09:25.386Z,1.50
2018-12-25T12:11:55.443Z,1.50
2018-12-25T12:14:28.552Z,1.50
2018-12-25T12:16:58.801Z,1.50
2018-12-25T12:19:28.908Z,1.50
2018-12-25T12:21:59.119Z,1.60
2018-12-25T12:24:30.299Z,1.60
2018-12-25T12:27:00.506Z,1.50
2018-12-25T12:29:30.637Z,1.60
2018-12-25T12:32:01.861Z,1.70
2018-12-25T12:34:31.937Z,1.70
2018-12-25T12:37:02.312Z,1.70
2018-12-25T12:39:32.411Z,1.60
2018-12-25T12:42:02.558Z,1.70
2018-12-25T12:44:32.683Z,1.70
2018-12-25T12:47:03.191Z,1.70
2018-12-25T12:49:33.346Z,1.70
2018-12-25T12:52:03.437Z,1.70
2018-12-25T12:54:33.635Z,1.60
2018-12-25T12:57:03.894Z,1.70
2018-12-25T12:59:34.139Z,1.70
2018-12-25T13:02:04.513Z,1.50
2018-12-25T13:04:34.538Z,1.50
2018-12-25T13:07:04.707Z,1.50
2018-12-25T13:09:35.303Z,1.50
2018-12-25T13:12:05.440Z,1.50
2018-12-25T13:14:35.630Z,1.50
2018-12-25T13:17:05.776Z,1.50
2018-12-25T13:19:36.119Z,1.50
2018-12-25T13:22:06.422Z,1.50
2018-12-25T13:24:36.598Z,1.50
2018-12-25T13:27:06.779Z,1.50
2018-12-25T13:29:36.975Z,1.60
2018-12-25T13:32:07.378Z,1.50
2018-12-25T13:34:37.524Z,1.50
2018-12-25T13:37:07.730Z,1.50
2018-12-25T13:39:37.963Z,1.40
2018-12-25T13:42:08.396Z,1.40
2018-12-25T13:44:40.942Z,1.40
2018-12-25T13:47:11.461Z,1.40
2018-12-25T13:49:41.687Z,1.40
2018-12-25T13:52:11.877Z,1.40
2018-12-25T13:54:42.148Z,1.50
2018-12-25T13:57:12.561Z,1.40
2018-12-25T13:59:42.697Z,1.40
2018-12-25T14:02:12.941Z,1.40
2018-12-25T14:04:43.132Z,1.30
2018-12-25T14:07:13.550Z,1.30
2018-12-25T14:09:43.713Z,1.40
2018-12-25T14:12:13.981Z,1.40
2018-12-25T14:14:44.146Z,1.40
2018-12-25T14:17:14.597Z,1.30
2018-12-25T14:19:44.805Z,1.30
2018-12-25T14:22:15.003Z,1.30
2018-12-25T14:24:45.122Z,1.30
2018-12-25T14:27:15.331Z,1.30
2018-12-25T14:29:45.622Z,1.30
2018-12-25T14:32:15.765Z,1.30
2018-12-25T14:34:46.042Z,1.30
2018-12-25T14:37:16.311Z,1.30
2018-12-25T14:39:46.798Z,1.30
2018-12-25T14:42:17.013Z,1.30
2018-12-25T14:44:47.290Z,1.30
2018-12-25T14:47:18.017Z,1.30
2018-12-25T14:49:48.278Z,1.40
2018-12-25T14:52:18.998Z,1.40
2018-12-25T14:54:49.241Z,1.40
2018-12-25T14:57:19.979Z,1.30
2018-12-25T14:59:50.131Z,1.30
2018-12-25T15:02:20.355Z,1.20
2018-12-25T15:04:50.694Z,1.10
2018-12-25T15:07:21.018Z,1.00
2018-12-25T15:09:51.238Z,0.80
2018-12-25T15:12:21.938Z,0.80
2018-12-25T15:14:52.087Z,0.80
2018-12-25T15:17:22.266Z,0.60
2018-12-25T15:19:52.430Z,0.50
2018-12-25T15:22:22.802Z,0.50
2018-12-25T15:24:52.901Z,0.40
2018-12-25T15:27:24.053Z,0.30
2018-12-25T15:29:54.228Z,0.20
2018-12-25T15:32:24.370Z,0.10
2018-12-25T15:34:56.136Z,0.10
2018-12-25T15:37:26.365Z,0.00
2018-12-25T15:39:56.630Z,0.00
2018-12-25T15:42:26.876Z,0.10
2018-12-25T15:44:57.086Z,0.10
2018-12-25T15:47:27.351Z,0.10
2018-12-25T15:49:57.664Z,0.10
2018-12-25T15:52:27.996Z,0.20
2018-12-25T15:54:58.118Z,0.20
2018-12-25T15:57:28.294Z,0.30
2018-12-25T15:59:58.372Z,0.30
2018-12-25T16:02:28.551Z,0.30
2018-12-25T16:04:59.013Z,0.30
2018-12-25T16:07:29.295Z,0.30
2018-12-25T16:09:59.456Z,0.30
2018-12-25T16:12:29.658Z,0.20
2018-12-25T16:15:00.039Z,0.20
2018-12-25T16:17:30.179Z,0.20
2018-12-25T16:20:00.351Z,0.20
2018-12-25T16:22:30.579Z,0.10
2018-12-25T16:25:02.555Z,0.10
2018-12-25T16:27:33.065Z,0.10
2018-12-25T16:30:03.487Z,0.20
2018-12-25T16:32:34.040Z,0.20
2018-12-25T16:35:04.450Z,0.20
2018-12-25T16:37:34.931Z,0.20
2018-12-25T16:40:09.284Z,0.20
2018-12-25T16:42:39.590Z,0.30
2018-12-25T16:45:09.881Z,0.20
2018-12-25T16:47:40.277Z,0.20
2018-12-25T16:50:10.643Z,0.20
2018-12-25T16:52:40.902Z,0.20
2018-12-25T16:55:11.432Z,0.10
2018-12-25T16:57:41.684Z,0.20
2018-12-25T17:00:11.675Z,0.20
2018-12-25T17:02:41.925Z,0.20
2018-12-25T17:05:12.435Z,0.10
2018-12-25T17:07:42.714Z,0.10
2018-12-25T17:10:13.077Z,0.00
2018-12-25T17:12:43.335Z,0.00
2018-12-25T17:15:13.485Z,-0.10
2018-12-25T17:17:43.697Z,-0.10
2018-12-25T17:20:16.684Z,-0.10
2018-12-25T17:22:46.818Z,-0.30
2018-12-25T17:25:17.053Z,-0.30
2018-12-25T17:27:47.621Z,-0.50
2018-12-25T17:30:19.078Z,-0.70
2018-12-25T17:32:49.408Z,-0.70
2018-12-25T17:35:19.538Z,-0.90
2018-12-25T17:37:49.745Z,-0.90
2018-12-25T17:40:19.927Z,-0.70
2018-12-25T17:42:50.403Z,-0.70
2018-12-25T17:45:20.522Z,-0.60
2018-12-25T17:47:50.696Z,-0.40
2018-12-25T17:50:20.873Z,-0.50
2018-12-25T17:52:52.039Z,-0.50
2018-12-25T17:55:22.512Z,-0.50
2018-12-25T17:57:52.697Z,-0.50
2018-12-25T18:00:22.918Z,-0.50
2018-12-25T18:02:53.025Z,-0.50
2018-12-25T18:05:25.894Z,-0.50
2018-12-25T18:07:56.107Z,-0.50
2018-12-25T18:10:27.883Z,-0.60
2018-12-25T18:12:58.029Z,-0.60
2018-12-25T18:15:28.343Z,-0.60
2018-12-25T18:17:58.674Z,-0.60
2018-12-25T18:20:28.808Z,-0.60
2018-12-25T18:23:00.836Z,-0.60
2018-12-25T18:25:31.187Z,-0.60
2018-12-25T18:28:03.776Z,-0.60
2018-12-25T18:30:34.156Z,-0.60
2018-12-25T18:33:04.689Z,-0.60
2018-12-25T18:35:36.007Z,-0.60
2018-12-25T18:38:06.200Z,-0.50
2018-12-25T18:40:36.860Z,-0.50
2018-12-25T18:43:07.155Z,-0.50
2018-12-25T18:45:40.737Z,-0.50
2018-12-25T18:48:10.958Z,-0.50
2018-12-25T18:50:45.544Z,-0.50
2018-12-25T18:53:15.873Z,-0.60
2018-12-25T18:55:46.096Z,-0.70
2018-12-25T18:58:16.391Z,-0.70
2018-12-25T19:00:46.800Z,-0.80
2018-12-25T19:03:16.886Z,-0.90
2018-12-25T19:05:53.112Z,-0.90
2018-12-25T19:08:24.974Z,-0.90
2018-12-25T19:10:55.151Z,-0.90
2018-12-25T19:13:25.307Z,-1.00
2018-12-25T19:15:57.790Z,-1.00
2018-12-25T19:18:27.941Z,-1.10
2018-12-25T19:20:59.767Z,-1.10
2018-12-25T19:23:30.097Z,-1.10
2018-12-25T19:26:02.243Z,-1.20
2018-12-25T19:28:32.363Z,-1.10
2018-12-25T19:31:03.781Z,-1.20
2018-12-25T19:33:34.030Z,-1.20
2018-12-25T19:36:04.310Z,-1.20
2018-12-25T19:38:34.419Z,-1.20
2018-12-25T19:41:05.044Z,-1.20
2018-12-25T19:43:38.386Z,-1.20
2018-12-25T19:46:13.189Z,-1.20
2018-12-25T19:48:46.859Z,-1.20
2018-12-25T19:51:20.232Z,-1.20
2018-12-25T19:53:50.430Z,-1.20
2018-12-25T19:56:34.117Z,-1.20
2018-12-25T19:59:00.631Z,-1.20
2018-12-25T20:01:37.001Z,-1.20
2018-12-25T20:04:38.135Z,-1.20
2018-12-25T20:07:43.611Z,-1.20
2018-12-25T20:11:04.923Z,-1.20
2018-12-25T20:14:29.807Z,-1.30
2018-12-25T20:17:36.324Z,-1.40
2018-12-25T20:20:49.090Z,-1.40
2018-12-25T20:23:49.799Z,-1.40
2018-12-25T20:27:00.639Z,-1.40
2018-12-25T20:29:55.874Z,-1.40
2018-12-25T20:33:00.851Z,-1.60
2018-12-25T20:36:14.200Z,-1.70
2018-12-25T20:39:30.299Z,-1.80
2018-12-25T20:42:52.590Z,-1.90
2018-12-25T20:46:15.503Z,-2.00
2018-12-25T20:49:11.238Z,-2.00
2018-12-25T20:52:20.555Z,-2.30
2018-12-25T20:55:33.276Z,-2.20
2018-12-25T20:58:55.644Z,-2.20
2018-12-25T21:02:13.057Z,-2.40
2018-12-25T21:05:48.303Z,-2.50
2018-12-25T21:09:07.025Z,-2.00
2018-12-25T21:12:18.619Z,-1.90
2018-12-25T21:15:30.044Z,-2.20
2018-12-25T21:18:39.645Z,-2.30
2018-12-25T21:21:33.787Z,-2.50
2018-12-25T21:24:39.890Z,-2.60
2018-12-25T21:27:33.614Z,-2.60
2018-12-25T21:30:07.022Z,-2.50
2018-12-25T21:32:42.262Z,-2.50
2018-12-25T21:35:23.726Z,-2.60
2018-12-25T21:37:55.622Z,-2.60
2018-12-25T21:40:25.931Z,-2.60
2018-12-25T21:42:57.281Z,-2.80
2018-12-25T21:45:27.583Z,-2.60
2018-12-25T21:47:58.041Z,-2.60
2018-12-25T21:50:28.549Z,-2.50
2018-12-25T21:52:58.675Z,-2.50
2018-12-25T21:55:28.787Z,-2.60
2018-12-25T21:57:59.486Z,-2.60
2018-12-25T22:00:32.060Z,-2.60
2018-12-25T22:03:03.114Z,-2.60
2018-12-25T22:05:33.473Z,-2.60
2018-12-25T22:08:04.999Z,-2.60
2018-12-25T22:10:35.238Z,-2.70
2018-12-25T22:13:05.662Z,-2.80
2018-12-25T22:15:35.895Z,-2.90
2018-12-25T22:18:06.160Z,-2.90
2018-12-25T22:20:38.318Z,-2.90
2018-12-25T22:23:08.807Z,-2.90
2018-12-25T22:25:39.094Z,-2.80
2018-12-25T22:28:09.233Z,-2.70
2018-12-25T22:30:39.725Z,-2.70
2018-12-25T22:33:09.953Z,-2.60
2018-12-25T22:35:40.055Z,-2.60
2018-12-25T22:38:10.215Z,-2.60
2018-12-25T22:40:40.617Z,-2.60
2018-12-25T22:43:10.935Z,-2.50
2018-12-25T22:45:41.083Z,-2.40
2018-12-25T22:48:11.183Z,-2.40
2018-12-25T22:50:41.325Z,-2.40
2018-12-25T22:53:11.865Z,-2.40
2018-12-25T22:55:41.971Z,-2.40
2018-12-25T22:58:12.163Z,-2.50
2018-12-25T23:00:42.637Z,-2.60
2018-12-25T23:03:22.245Z,-2.80
2018-12-25T23:05:52.355Z,-2.90
2018-12-25T23:08:22.810Z,-3.00
2018-12-25T23:10:52.893Z,-3.00
2018-12-25T23:13:23.197Z,-3.20
2018-12-25T23:15:53.475Z,-3.20
2018-12-25T23:18:23.856Z,-3.20
2018-12-25T23:20:54.083Z,-3.30
2018-12-25T23:23:24.213Z,-3.30
2018-12-25T23:25:54.351Z,-3.20
2018-12-25T23:28:24.549Z,-3.30
2018-12-25T23:30:55.104Z,-3.30
2018-12-25T23:33:25.800Z,-3.30
2018-12-25T23:35:56.126Z,-3.40
2018-12-25T23:38:26.350Z,-3.50
2018-12-25T23:40:56.499Z,-3.50
2018-12-25T23:43:26.703Z,-3.50
2018-12-25T23:45:57.183Z,-3.50
2018-12-25T23:48:27.422Z,-3.40
2018-12-25T23:50:57.533Z,-3.40
2018-12-25T23:53:27.730Z,-3.30
2018-12-25T23:55:58.245Z,-3.30
2018-12-25T23:58:28.407Z,-3.30
